METAR Data
IDs: Format: Raw Decoded Include TAF

Data at: 0349 UTC 06 Dec 2019

METAR for:KAMW (Ames Muni, IA, US)
Text:KAMW 060253Z AUTO 35010KT 10SM CLR 02/M01 A3001 RMK AO2 SLP168 T00221006 53032
Temperature: 2.2°C ( 36°F)
Dewpoint: -0.6°C ( 31°F) [RH = 82%]
Pressure (altimeter):30.01 inches Hg (1016.3 mb) [Sea level pressure: 1016.8 mb]
Winds:from the N (350 degrees) at 12 MPH (10 knots; 5.1 m/s)
Visibility:10 or more sm (16+ km)
Ceiling:at least 12,000 feet AGL
Clouds:sky clear below 12,000 feet AGL
QC Flag:automated observation with no human augmentation